Time;durP1;ratioP1;P1;durP2;ratioP2;P2;SDS_P1;SDS_P2;PMS_P1;PMS_P2;Temp;Humidity;BMP_temperature;BMP_pressure;BME280_temperature;BME280_humidity;BME280_pressure;Samples;Min_cycle;Max_cycle;Signal;HPM_P1;HPM_P2
2022/05/26 00:00:12;;;;;;;9.10;1.63;;;10.90;85.00;;;;;;4881849;29;20048;-81
2022/05/26 00:02:39;;;;;;;8.23;1.73;;;10.80;84.90;;;;;;4898728;29;20048;-81
2022/05/26 00:05:07;;;;;;;15.57;2.72;;;10.80;84.90;;;;;;4898321;29;20510;-81
2022/05/26 00:07:35;;;;;;;10.00;1.33;;;10.80;85.00;;;;;;4898476;29;20103;-81
2022/05/26 00:10:03;;;;;;;15.77;2.15;;;10.80;85.10;;;;;;4898861;29;20045;-81
2022/05/26 00:12:31;;;;;;;8.90;1.77;;;10.80;85.10;;;;;;4892159;29;20059;-81
2022/05/26 00:14:59;;;;;;;12.77;1.38;;;10.80;85.10;;;;;;4898666;29;20044;-81
2022/05/26 00:17:28;;;;;;;10.23;1.55;;;10.70;85.20;;;;;;4898180;29;20384;-81
2022/05/26 00:19:58;;;;;;;10.05;1.40;;;10.70;85.20;;;;;;4913973;29;20541;-82
2022/05/26 00:22:26;;;;;;;13.63;1.98;;;10.70;85.40;;;;;;4900236;29;20052;-82
2022/05/26 00:24:54;;;;;;;10.98;1.73;;;10.80;85.30;;;;;;4899298;29;20060;-81
2022/05/26 00:27:21;;;;;;;10.95;1.52;;;10.70;85.30;;;;;;4881896;29;20071;-79
2022/05/26 00:29:49;;;;;;;11.63;2.28;;;10.70;85.30;;;;;;4900620;29;20063;-81
2022/05/26 00:32:17;;;;;;;6.57;1.15;;;10.70;85.30;;;;;;4917215;29;20048;-82
2022/05/26 00:34:45;;;;;;;15.55;2.60;;;10.70;85.40;;;;;;4918444;29;20048;-83
2022/05/26 00:37:13;;;;;;;4.88;1.45;;;10.60;85.30;;;;;;4916734;29;20055;-80
2022/05/26 00:39:40;;;;;;;17.33;2.03;;;10.60;85.40;;;;;;4916153;29;20040;-81
2022/05/26 00:42:08;;;;;;;9.05;1.70;;;10.60;85.40;;;;;;4916619;29;20055;-81
2022/05/26 00:44:36;;;;;;;5.57;1.08;;;10.60;85.40;;;;;;4900004;29;20056;-81
2022/05/26 00:47:20;;;;;;;12.07;1.88;;;10.60;85.60;;;;;;4917059;29;20407;-81
2022/05/26 00:50:07;;;;;;;10.63;1.40;;;10.50;85.60;;;;;;4899421;29;20481;-81
2022/05/26 00:52:35;;;;;;;12.98;2.42;;;10.50;85.60;;;;;;4916635;29;20331;-81
2022/05/26 00:55:13;;;;;;;11.48;1.52;;;10.50;85.70;;;;;;4899853;29;20052;-80
2022/05/26 00:57:45;;;;;;;10.07;1.73;;;10.50;85.70;;;;;;4917029;29;20064;-81
2022/05/26 01:00:17;;;;;;;6.97;1.75;;;10.40;85.80;;;;;;4916861;29;20044;-81
2022/05/26 01:02:53;;;;;;;15.25;2.50;;;10.50;85.90;;;;;;4916249;29;20056;-81
2022/05/26 01:05:28;;;;;;;10.80;1.52;;;10.40;85.80;;;;;;4927562;29;20048;-81
2022/05/26 01:07:57;;;;;;;10.80;1.52;;;10.40;85.90;;;;;;4916847;29;20048;-81
2022/05/26 01:10:27;;;;;;;16.55;2.05;;;10.40;85.90;;;;;;4916017;29;20062;-82
2022/05/26 01:12:56;;;;;;;10.27;1.33;;;10.40;85.80;;;;;;4900190;29;20044;-81
2022/05/26 01:15:28;;;;;;;8.55;1.33;;;10.50;85.80;;;;;;4917011;29;20052;-80
2022/05/26 01:18:14;;;;;;;11.63;1.40;;;10.50;85.70;;;;;;4901531;29;20044;-79
2022/05/26 01:20:51;;;;;;;11.68;2.28;;;10.50;85.60;;;;;;4921354;29;20059;-80
2022/05/26 01:23:28;;;;;;;6.97;1.42;;;10.50;85.50;;;;;;4916547;29;20052;-81
2022/05/26 01:26:07;;;;;;;5.30;1.48;;;10.50;85.60;;;;;;4929007;29;20052;-80
2022/05/26 01:28:44;;;;;;;10.75;1.40;;;10.40;85.50;;;;;;4906519;29;20658;-79
2022/05/26 01:31:38;;;;;;;5.80;1.17;;;10.40;85.70;;;;;;4908732;29;20056;-81
2022/05/26 01:34:28;;;;;;;11.05;1.73;;;10.40;85.90;;;;;;4916649;29;20052;-80
2022/05/26 01:37:06;;;;;;;6.00;1.40;;;10.30;85.90;;;;;;4915471;29;20056;-79
2022/05/26 01:39:42;;;;;;;13.23;2.17;;;10.30;86.10;;;;;;4898564;29;20513;-81
2022/05/26 01:42:25;;;;;;;8.13;1.60;;;10.30;86.10;;;;;;4915124;29;20056;-81
2022/05/26 01:45:18;;;;;;;11.50;1.90;;;10.30;86.10;;;;;;4915136;29;20059;-81
2022/05/26 01:47:55;;;;;;;7.07;1.55;;;10.30;86.20;;;;;;4915643;29;20052;-81
2022/05/26 01:50:39;;;;;;;8.13;1.58;;;10.30;86.30;;;;;;4899089;29;20044;-81
2022/05/26 01:53:29;;;;;;;4.40;0.80;;;10.20;86.20;;;;;;4915524;29;20040;-81
2022/05/26 01:56:25;;;;;;;7.75;1.45;;;10.30;86.30;;;;;;4915792;29;20052;-81
2022/05/26 01:59:12;;;;;;;7.68;1.10;;;10.30;86.00;;;;;;4916067;29;20044;-80
2022/05/26 02:01:43;;;;;;;9.73;1.08;;;10.40;85.70;;;;;;4914284;29;20062;-80
2022/05/26 02:04:18;;;;;;;8.27;1.60;;;10.40;85.50;;;;;;4915885;29;20060;-80
2022/05/26 02:06:52;;;;;;;8.45;1.50;;;10.50;85.30;;;;;;4915249;29;20153;-81
2022/05/26 02:09:27;;;;;;;7.18;1.10;;;10.60;85.10;;;;;;4917988;29;20052;-82
2022/05/26 02:12:03;;;;;;;6.72;1.23;;;10.70;84.90;;;;;;4917102;29;20055;-80
2022/05/26 02:14:50;;;;;;;7.95;1.40;;;10.70;84.70;;;;;;4901466;29;20052;-81
2022/05/26 02:17:19;;;;;;;6.15;0.90;;;10.80;84.30;;;;;;4929493;29;20047;-81
2022/05/26 02:19:59;;;;;;;13.68;2.30;;;10.80;84.10;;;;;;4911438;29;20047;-81
2022/05/26 02:22:32;;;;;;;5.97;1.17;;;10.90;83.70;;;;;;4915427;29;20422;-81
2022/05/26 02:25:16;;;;;;;7.88;1.30;;;11.00;83.40;;;;;;4915604;29;20051;-81
2022/05/26 02:27:44;;;;;;;6.43;0.93;;;10.90;83.40;;;;;;4911823;29;20064;-81
2022/05/26 02:30:13;;;;;;;8.07;1.40;;;11.00;83.30;;;;;;4896394;29;20071;-82
2022/05/26 02:32:47;;;;;;;8.07;1.25;;;10.90;83.20;;;;;;4896533;29;20051;-82
2022/05/26 02:35:20;;;;;;;7.35;0.82;;;10.90;83.30;;;;;;4896462;29;20053;-81
2022/05/26 02:37:52;;;;;;;11.88;1.60;;;11.00;83.40;;;;;;4896301;29;20056;-81
2022/05/26 02:40:20;;;;;;;10.45;1.33;;;10.90;83.40;;;;;;4896433;29;20056;-81
2022/05/26 02:43:13;;;;;;;6.20;2.20;;;10.90;83.40;;;;;;4896333;29;20055;-81
2022/05/26 02:45:50;;;;;;;10.05;1.80;;;10.80;83.50;;;;;;4907340;29;20052;-81
2022/05/26 02:48:20;;;;;;;8.40;1.00;;;10.80;83.70;;;;;;4900620;29;20403;-83
2022/05/26 02:50:48;;;;;;;7.75;1.52;;;10.80;84.10;;;;;;4895662;29;20506;-81
2022/05/26 02:53:31;;;;;;;8.65;1.33;;;10.80;84.20;;;;;;4879465;29;20051;-81
2022/05/26 02:56:35;;;;;;;8.25;1.40;;;10.80;84.40;;;;;;4896643;29;20506;-81
2022/05/26 02:59:22;;;;;;;7.88;1.23;;;10.90;84.50;;;;;;4896188;29;20468;-81
2022/05/26 03:01:57;;;;;;;12.18;1.55;;;10.90;84.60;;;;;;4896323;29;20503;-81
2022/05/26 03:04:36;;;;;;;10.85;1.30;;;10.90;84.60;;;;;;4896628;29;20055;-80
2022/05/26 03:07:19;;;;;;;7.70;1.65;;;10.80;84.60;;;;;;4896198;29;20044;-81
2022/05/26 03:09:47;;;;;;;9.98;2.03;;;10.80;84.70;;;;;;4896174;29;20053;-81
2022/05/26 03:12:23;;;;;;;5.70;1.50;;;10.80;84.80;;;;;;4879192;29;20141;-85
2022/05/26 03:14:51;;;;;;;6.75;1.30;;;10.70;84.90;;;;;;4896431;29;20154;-79
2022/05/26 03:17:19;;;;;;;8.07;1.20;;;10.70;84.90;;;;;;4895866;29;20056;-81
2022/05/26 03:19:46;;;;;;;8.15;1.40;;;10.60;85.00;;;;;;4896072;29;20052;-81
2022/05/26 03:22:15;;;;;;;7.05;1.85;;;10.40;85.10;;;;;;4896395;29;20049;-80
2022/05/26 03:24:42;;;;;;;6.95;1.30;;;10.30;85.40;;;;;;4879662;29;20055;-81
2022/05/26 03:27:10;;;;;;;9.45;1.38;;;10.20;85.70;;;;;;4894960;29;20096;-79
2022/05/26 03:29:38;;;;;;;4.90;1.10;;;10.10;85.80;;;;;;4917743;29;20533;-80
2022/05/26 03:32:06;;;;;;;11.95;1.90;;;10.10;85.90;;;;;;4918215;29;20056;-81
2022/05/26 03:42:54;;;;;;;12.35;1.70;;;10.20;86.00;;;;;;4901132;29;20055;-79
2022/05/26 03:45:23;;;;;;;7.15;1.67;;;10.20;86.00;;;;;;4901461;29;20063;-80
2022/05/26 03:47:51;;;;;;;8.98;1.23;;;10.30;86.00;;;;;;4918266;29;20133;-80
2022/05/26 03:50:19;;;;;;;13.25;2.35;;;10.20;86.10;;;;;;4907608;29;20059;-80
2022/05/26 03:52:47;;;;;;;13.60;2.08;;;10.20;86.10;;;;;;4917413;29;20059;-80
2022/05/26 03:55:15;;;;;;;8.18;1.35;;;10.20;86.10;;;;;;4917904;29;20048;-80
2022/05/26 03:57:43;;;;;;;5.20;1.15;;;10.10;86.30;;;;;;4917194;29;20048;-80
2022/05/26 04:00:12;;;;;;;6.40;1.70;;;10.10;86.40;;;;;;4917677;29;20063;-80
2022/05/26 04:02:40;;;;;;;13.80;1.48;;;10.00;86.60;;;;;;4917701;29;20052;-80
2022/05/26 04:05:10;;;;;;;3.08;1.00;;;10.00;86.70;;;;;;4918867;29;20502;-80
2022/05/26 04:07:38;;;;;;;13.57;1.45;;;10.00;86.70;;;;;;4920044;29;20079;-80
2022/05/26 04:10:08;;;;;;;10.07;1.33;;;10.00;86.70;;;;;;4917781;29;20059;-80
2022/05/26 04:12:37;;;;;;;6.07;1.23;;;10.00;86.70;;;;;;4902218;29;20051;-80
2022/05/26 04:15:06;;;;;;;8.82;1.25;;;10.00;86.70;;;;;;4917738;29;20402;-81
2022/05/26 04:17:35;;;;;;;7.95;1.45;;;10.00;86.80;;;;;;4916691;29;20071;-80
2022/05/26 04:20:05;;;;;;;7.53;1.60;;;10.00;86.70;;;;;;4917709;29;20048;-80
2022/05/26 04:22:32;;;;;;;7.38;1.10;;;10.00;86.70;;;;;;4917446;29;20506;-80
2022/05/26 04:25:00;;;;;;;8.65;2.10;;;10.00;86.70;;;;;;4898842;29;20071;-81
2022/05/26 04:27:31;;;;;;;6.22;1.63;;;10.00;86.80;;;;;;4912251;29;20051;-80
2022/05/26 04:30:01;;;;;;;11.13;1.70;;;10.00;86.80;;;;;;4917645;29;20060;-80
2022/05/26 04:32:29;;;;;;;5.85;1.52;;;10.00;86.80;;;;;;4917046;29;20056;-81
2022/05/26 04:34:57;;;;;;;5.70;1.42;;;10.00;86.90;;;;;;4917010;29;20059;-80
2022/05/26 04:37:26;;;;;;;6.93;1.75;;;10.00;86.90;;;;;;4917332;29;20056;-80
2022/05/26 04:39:55;;;;;;;15.60;1.90;;;10.00;87.00;;;;;;4916083;29;20055;-80
2022/05/26 04:42:23;;;;;;;7.93;1.30;;;10.00;86.90;;;;;;4900331;29;20064;-80
2022/05/26 04:44:51;;;;;;;11.15;2.83;;;10.00;87.00;;;;;;4916058;29;20048;-81
2022/05/26 04:47:20;;;;;;;9.20;1.60;;;10.00;87.00;;;;;;4916067;29;20490;-81
2022/05/26 04:49:48;;;;;;;5.63;1.75;;;10.10;87.00;;;;;;4916415;29;20422;-81
2022/05/26 04:52:19;;;;;;;11.27;1.92;;;10.10;87.00;;;;;;4916862;29;20048;-80
2022/05/26 04:54:48;;;;;;;10.38;1.70;;;10.10;87.00;;;;;;4915282;29;20044;-80
2022/05/26 04:57:19;;;;;;;7.60;1.67;;;10.20;87.00;;;;;;4915831;29;20048;-81
2022/05/26 04:59:47;;;;;;;10.10;1.67;;;10.20;86.90;;;;;;4915957;29;20051;-80
2022/05/26 05:02:17;;;;;;;9.05;1.50;;;10.20;86.90;;;;;;4897002;29;20056;-81
2022/05/26 05:04:48;;;;;;;5.30;1.30;;;10.20;87.00;;;;;;4916030;29;20052;-81
2022/05/26 05:07:17;;;;;;;11.27;1.60;;;10.30;87.10;;;;;;4918103;29;20043;-80
2022/05/26 05:09:46;;;;;;;8.77;1.60;;;10.30;87.00;;;;;;4914720;29;20044;-80
2022/05/26 05:12:19;;;;;;;8.52;1.70;;;10.40;86.90;;;;;;4917425;29;20052;-81
2022/05/26 05:14:48;;;;;;;8.63;1.60;;;10.40;86.80;;;;;;4917005;29;20044;-81
2022/05/26 05:17:17;;;;;;;7.95;1.50;;;10.50;86.70;;;;;;4914925;29;20059;-80
2022/05/26 05:19:47;;;;;;;6.00;1.50;;;10.50;86.60;;;;;;4899479;29;20533;-80
2022/05/26 05:22:21;;;;;;;6.15;1.35;;;10.60;86.50;;;;;;4914273;29;20047;-80
2022/05/26 05:24:48;;;;;;;8.10;1.70;;;10.70;86.40;;;;;;4914461;29;20060;-80
2022/05/26 05:27:16;;;;;;;5.40;1.20;;;10.80;86.30;;;;;;4918565;29;20051;-80
2022/05/26 05:29:47;;;;;;;8.05;1.20;;;10.80;86.20;;;;;;4928703;29;20062;-81
2022/05/26 05:32:24;;;;;;;6.10;1.10;;;10.90;86.10;;;;;;4915840;29;20067;-80
2022/05/26 05:35:03;;;;;;;8.13;1.45;;;11.00;85.90;;;;;;4915456;29;20044;-81
2022/05/26 05:37:32;;;;;;;11.35;1.20;;;11.20;85.80;;;;;;4900969;29;20056;-81
2022/05/26 05:40:00;;;;;;;7.25;0.95;;;11.30;85.60;;;;;;4898061;29;20052;-81
2022/05/26 05:42:29;;;;;;;8.90;1.17;;;11.30;85.30;;;;;;4913314;29;20059;-81
2022/05/26 05:45:00;;;;;;;7.45;1.30;;;11.30;85.20;;;;;;4919152;29;20044;-80
2022/05/26 05:47:27;;;;;;;8.32;1.42;;;11.40;85.10;;;;;;4915573;29;20055;-81
2022/05/26 05:49:55;;;;;;;4.53;1.20;;;11.50;85.00;;;;;;4918497;29;20493;-80
2022/05/26 05:52:24;;;;;;;10.48;1.83;;;11.70;85.00;;;;;;4915145;29;20489;-80
2022/05/26 05:54:54;;;;;;;6.10;1.33;;;11.80;84.80;;;;;;4921553;29;20082;-80
2022/05/26 05:57:22;;;;;;;8.20;1.45;;;11.90;84.50;;;;;;4920620;29;20047;-81
2022/05/26 05:59:50;;;;;;;10.40;1.13;;;12.00;84.30;;;;;;4925227;29;20044;-81
2022/05/26 06:02:18;;;;;;;10.07;1.52;;;12.20;84.10;;;;;;4916865;29;20052;-81
2022/05/26 06:05:04;;;;;;;6.53;1.17;;;12.30;83.90;;;;;;4920877;29;20048;-81
2022/05/26 06:07:33;;;;;;;11.55;1.20;;;12.40;83.70;;;;;;4921388;29;20063;-81
2022/05/26 06:10:03;;;;;;;6.55;1.45;;;12.60;83.50;;;;;;4916770;29;20430;-81
2022/05/26 06:12:30;;;;;;;4.65;1.17;;;12.80;83.10;;;;;;4913261;29;20048;-82
2022/05/26 06:14:58;;;;;;;5.90;1.10;;;12.80;82.60;;;;;;4918446;29;20056;-82
2022/05/26 06:17:26;;;;;;;12.93;2.20;;;12.90;82.30;;;;;;4916910;29;20059;-82
2022/05/26 06:19:53;;;;;;;7.90;1.30;;;13.00;82.00;;;;;;4914473;29;20059;-81
2022/05/26 06:22:22;;;;;;;6.93;1.60;;;13.10;82.00;;;;;;4914755;29;20052;-81
2022/05/26 06:24:50;;;;;;;8.07;1.00;;;13.10;81.60;;;;;;4921030;29;20056;-81
2022/05/26 06:30:11;;;;;;;7.47;0.95;;;13.20;80.90;;;;;;4919603;29;20054;-82
2022/05/26 06:38:21;;;;;;;4.72;0.65;;;13.50;79.20;;;;;;4914737;29;20044;-82
2022/05/26 06:40:49;;;;;;;6.28;1.00;;;13.60;79.20;;;;;;4914399;29;20051;-82
2022/05/26 06:43:18;;;;;;;0.98;0.40;;;13.70;79.10;;;;;;4916795;29;20044;-82
2022/05/26 06:45:47;;;;;;;5.18;0.57;;;13.70;79.10;;;;;;4915639;29;20048;-81
2022/05/26 06:48:16;;;;;;;1.98;0.30;;;13.80;78.20;;;;;;4915020;29;20505;-79
2022/05/26 06:50:44;;;;;;;4.75;0.80;;;13.80;78.20;;;;;;4914242;29;20461;-81
2022/05/26 06:53:11;;;;;;;4.85;0.57;;;13.80;78.30;;;;;;4916133;29;20509;-82
2022/05/26 06:55:39;;;;;;;3.55;0.70;;;13.80;78.40;;;;;;4914595;29;20055;-81
2022/05/26 06:58:06;;;;;;;7.25;0.57;;;13.70;78.40;;;;;;4919144;29;20044;-80
2022/05/26 07:00:34;;;;;;;2.92;0.70;;;13.70;79.00;;;;;;4897355;29;20044;-81
2022/05/26 07:03:02;;;;;;;9.05;0.73;;;13.70;78.90;;;;;;4916484;29;20052;-82
2022/05/26 07:05:33;;;;;;;3.50;0.77;;;13.70;79.10;;;;;;4899404;29;20072;-82
2022/05/26 07:08:01;;;;;;;5.65;0.90;;;13.60;79.40;;;;;;4914966;29;20502;-81
2022/05/26 07:10:30;;;;;;;2.35;0.40;;;13.60;79.80;;;;;;4917394;29;20521;-80
2022/05/26 07:12:57;;;;;;;2.20;0.63;;;13.60;79.60;;;;;;4908516;29;20048;-81
2022/05/26 07:15:26;;;;;;;5.22;0.75;;;13.60;79.50;;;;;;4903530;29;20044;-81
2022/05/26 07:17:54;;;;;;;2.78;0.70;;;13.60;80.00;;;;;;4913328;29;20641;-81
2022/05/26 07:20:21;;;;;;;3.13;0.50;;;13.70;80.00;;;;;;4905730;29;20549;-81
2022/05/26 07:22:49;;;;;;;6.60;0.70;;;13.70;80.00;;;;;;4918932;29;20048;-81
2022/05/26 07:25:17;;;;;;;4.68;0.57;;;13.80;80.00;;;;;;4910452;29;20044;-81
2022/05/26 07:27:45;;;;;;;2.53;0.40;;;13.80;79.60;;;;;;4920966;29;20056;-80
2022/05/26 07:30:13;;;;;;;4.63;0.73;;;13.90;79.60;;;;;;4919013;29;20044;-81
2022/05/26 07:32:40;;;;;;;2.45;0.60;;;14.00;79.00;;;;;;4918327;29;20051;-80
2022/05/26 07:35:10;;;;;;;6.07;0.88;;;14.10;78.80;;;;;;4917564;29;20051;-81
2022/05/26 07:43:22;;;;;;;4.15;0.40;;;14.40;78.80;;;;;;4901522;29;20044;-81
2022/05/26 07:45:50;;;;;;;3.67;0.60;;;14.50;78.40;;;;;;4921891;29;20091;-81
2022/05/26 07:48:18;;;;;;;4.15;0.30;;;14.70;78.10;;;;;;4922765;29;20048;-81
2022/05/26 07:50:45;;;;;;;3.75;0.50;;;14.80;77.80;;;;;;4914475;29;20071;-83
2022/05/26 07:53:13;;;;;;;2.22;0.55;;;14.70;77.50;;;;;;4915016;29;20071;-83
2022/05/26 07:55:42;;;;;;;4.05;0.45;;;14.80;77.70;;;;;;4915654;29;20426;-83
2022/05/26 07:58:12;;;;;;;2.45;0.50;;;14.90;77.50;;;;;;4916618;29;20059;-83
2022/05/26 08:00:40;;;;;;;0.55;0.20;;;14.90;77.50;;;;;;4919987;29;20063;-79
2022/05/26 08:03:09;;;;;;;1.25;0.20;;;15.10;77.00;;;;;;4919770;29;20051;-81
2022/05/26 08:05:38;;;;;;;2.35;0.30;;;15.10;77.00;;;;;;4904993;29;20067;-85
2022/05/26 08:08:06;;;;;;;3.63;0.60;;;15.10;77.30;;;;;;4914117;29;20446;-81
2022/05/26 08:10:34;;;;;;;6.97;0.40;;;15.00;77.10;;;;;;4914965;29;20066;-82
2022/05/26 08:13:02;;;;;;;6.32;0.75;;;15.00;77.50;;;;;;4914587;29;20052;-82
2022/05/26 08:15:31;;;;;;;0.63;0.30;;;15.00;77.60;;;;;;4916464;29;20701;-80
2022/05/26 08:17:58;;;;;;;3.30;0.60;;;15.00;77.90;;;;;;4921838;29;20060;-83
2022/05/26 08:20:26;;;;;;;1.70;0.30;;;15.00;78.00;;;;;;4909325;29;20078;-83
2022/05/26 08:22:54;;;;;;;2.45;0.35;;;15.10;77.70;;;;;;4915588;29;20048;-83
2022/05/26 08:25:22;;;;;;;3.30;0.85;;;15.10;77.70;;;;;;4917936;29;20056;-84
2022/05/26 08:27:50;;;;;;;5.75;0.40;;;15.20;78.10;;;;;;4913437;29;20059;-83
2022/05/26 08:30:18;;;;;;;4.22;0.45;;;15.40;78.20;;;;;;4898170;29;20044;-83
2022/05/26 08:32:45;;;;;;;4.78;0.30;;;15.50;77.70;;;;;;4898603;29;20051;-82
2022/05/26 08:35:13;;;;;;;0.70;0.40;;;15.70;76.90;;;;;;4898568;29;20052;-81
2022/05/26 08:37:41;;;;;;;3.22;0.57;;;15.60;77.10;;;;;;4898660;29;20052;-81
2022/05/26 08:40:39;;;;;;;1.27;0.40;;;15.70;77.20;;;;;;4907642;29;20044;-82
2022/05/26 08:43:21;;;;;;;1.88;0.40;;;15.70;76.80;;;;;;4895702;29;20040;-82
2022/05/26 08:45:52;;;;;;;2.03;0.60;;;15.70;77.10;;;;;;4896559;29;20044;-81
2022/05/26 08:48:52;;;;;;;1.92;0.30;;;15.60;77.50;;;;;;4896850;29;20044;-83
2022/05/26 08:51:29;;;;;;;3.03;0.60;;;15.60;77.80;;;;;;4897257;29;20051;-82
2022/05/26 08:53:59;;;;;;;2.17;0.43;;;15.50;77.80;;;;;;4879297;29;20419;-82
2022/05/26 08:56:28;;;;;;;7.70;1.23;;;15.50;78.20;;;;;;4895505;29;20052;-80
2022/05/26 08:59:03;;;;;;;7.10;1.13;;;15.50;78.50;;;;;;4905470;29;20044;-83
2022/05/26 09:01:32;;;;;;;2.58;0.50;;;15.60;78.20;;;;;;4896872;29;20474;-82
2022/05/26 09:04:01;;;;;;;1.95;0.70;;;15.70;78.30;;;;;;4897305;29;20380;-82
2022/05/26 09:12:55;;;;;;;2.97;0.50;;;15.70;77.50;;;;;;4895370;29;20426;-81
2022/05/26 09:15:04;;;;;;;10.30;1.73;;;16.10;76.80;;;;;;4899604;29;20059;-82
2022/05/26 09:17:32;;;;;;;5.32;0.82;;;16.10;76.70;;;;;;4911787;29;20474;-79
2022/05/26 09:20:04;;;;;;;8.45;1.40;;;16.20;76.00;;;;;;4901750;29;20052;-80
2022/05/26 09:22:45;;;;;;;9.05;1.55;;;16.20;76.20;;;;;;4890910;29;20418;-80
2022/05/26 09:25:34;;;;;;;4.63;1.30;;;16.30;75.90;;;;;;4896070;29;20498;-83
2022/05/26 09:28:02;;;;;;;4.70;1.13;;;16.30;75.70;;;;;;4878625;29;20174;-84
2022/05/26 09:30:32;;;;;;;4.75;1.20;;;16.20;75.80;;;;;;4895361;29;20406;-92
2022/05/26 09:33:00;;;;;;;11.30;2.05;;;16.10;76.20;;;;;;4895792;29;20089;-85
2022/05/26 09:35:34;;;;;;;11.82;2.17;;;16.10;76.80;;;;;;4894657;29;20501;-78
2022/05/26 09:38:06;;;;;;;11.20;1.80;;;16.20;76.10;;;;;;4909076;29;20418;-84
2022/05/26 09:40:41;;;;;;;4.10;1.65;;;16.20;76.30;;;;;;4895301;29;20503;-77
2022/05/26 09:43:23;;;;;;;12.45;2.05;;;16.20;76.40;;;;;;4896334;29;20049;-80
2022/05/26 09:45:55;;;;;;;7.63;1.80;;;16.30;76.40;;;;;;4896552;29;20057;-83
2022/05/26 09:48:31;;;;;;;18.50;2.85;;;16.30;75.30;;;;;;4901404;29;20055;-84
2022/05/26 09:51:02;;;;;;;9.48;1.73;;;16.20;75.80;;;;;;4897855;29;20057;-84
2022/05/26 09:53:38;;;;;;;11.07;2.40;;;16.20;76.30;;;;;;4895656;29;20052;-84
2022/05/26 09:56:07;;;;;;;5.22;1.50;;;16.20;75.90;;;;;;4895775;29;20060;-84
2022/05/26 09:58:39;;;;;;;18.52;2.53;;;16.20;75.60;;;;;;4901791;29;20417;-84
2022/05/26 10:01:27;;;;;;;11.73;2.33;;;16.10;75.90;;;;;;4897161;29;20053;-84
2022/05/26 10:04:04;;;;;;;9.55;1.75;;;16.20;75.90;;;;;;4897134;29;20063;-85
2022/05/26 10:06:57;;;;;;;15.90;2.28;;;16.30;75.30;;;;;;4894643;29;20419;-80
2022/05/26 10:09:34;;;;;;;11.30;2.17;;;16.30;75.50;;;;;;4909236;29;20045;-79
2022/05/26 10:12:30;;;;;;;16.63;2.70;;;16.50;74.80;;;;;;4894516;29;20295;-79
2022/05/26 10:15:40;;;;;;;11.75;2.22;;;16.70;74.90;;;;;;4837778;29;20058;-81
2022/05/26 10:18:23;;;;;;;10.80;2.08;;;17.10;73.90;;;;;;4830331;29;20060;-80
2022/05/26 10:21:01;;;;;;;3.55;1.27;;;17.20;72.70;;;;;;4841351;29;20481;-84
2022/05/26 10:23:50;;;;;;;12.55;2.20;;;17.30;72.30;;;;;;4831595;29;20054;-82
2022/05/26 10:26:50;;;;;;;15.35;2.15;;;17.30;72.20;;;;;;4839277;29;20060;-84
2022/05/26 10:30:01;;;;;;;7.50;1.65;;;17.40;71.50;;;;;;4840609;29;20056;-83
2022/05/26 10:32:53;;;;;;;12.63;2.35;;;17.30;71.50;;;;;;4839068;29;20065;-83
2022/05/26 10:35:36;;;;;;;10.07;2.10;;;17.30;72.00;;;;;;4839341;29;20049;-82
2022/05/26 10:38:22;;;;;;;22.37;2.83;;;17.30;71.60;;;;;;4842960;29;20054;-82
2022/05/26 10:41:03;;;;;;;10.93;2.22;;;17.20;72.40;;;;;;4842410;29;20324;-82
2022/05/26 10:43:53;;;;;;;10.52;2.10;;;17.30;72.60;;;;;;4842238;29;20049;-84
2022/05/26 10:46:26;;;;;;;11.20;1.80;;;17.30;71.90;;;;;;4841941;29;20046;-84
2022/05/26 10:49:32;;;;;;;15.80;2.57;;;17.10;71.40;;;;;;4837072;29;20051;-79
2022/05/26 10:52:19;;;;;;;8.55;1.88;;;16.90;72.80;;;;;;4857881;29;20049;-83
2022/05/26 10:54:59;;;;;;;11.20;2.35;;;16.80;72.90;;;;;;4895000;29;20403;-82
2022/05/26 10:57:45;;;;;;;16.38;2.30;;;16.80;73.40;;;;;;4898753;29;20418;-83
2022/05/26 11:00:24;;;;;;;15.82;2.53;;;16.70;73.60;;;;;;4900549;29;20049;-83
2022/05/26 11:03:19;;;;;;;9.23;2.00;;;16.70;73.40;;;;;;4900749;29;20068;-83
2022/05/26 11:05:50;;;;;;;12.68;2.10;;;16.60;74.00;;;;;;4899841;29;20060;-82
2022/05/26 11:08:24;;;;;;;11.60;2.00;;;16.70;74.20;;;;;;4900794;29;20063;-82
2022/05/26 11:10:58;;;;;;;16.45;3.13;;;16.80;73.80;;;;;;4918317;29;20052;-82
2022/05/26 11:13:47;;;;;;;16.55;2.50;;;16.80;73.80;;;;;;4924365;29;20375;-82
2022/05/26 11:19:42;;;;;;;24.27;3.42;;;16.80;73.90;;;;;;4917303;29;20508;-84
2022/05/26 11:22:12;;;;;;;7.15;1.65;;;16.90;73.80;;;;;;4910226;29;20506;-84
2022/05/26 11:24:46;;;;;;;12.98;1.55;;;16.80;73.10;;;;;;4899163;29;20696;-80
2022/05/26 11:27:16;;;;;;;;;;;16.80;72.60;;;;;;4910677;29;20060;-84
2022/05/26 11:29:52;;;;;;;17.60;2.65;;;16.70;73.10;;;;;;4913851;29;19931;-83
2022/05/26 11:36:07;;;;;;;10.02;2.03;;;16.60;73.70;;;;;;4899195;29;20114;-82
2022/05/26 11:38:42;;;;;;;11.23;1.63;;;16.60;74.00;;;;;;4899757;29;20049;-83
2022/05/26 11:41:15;;;;;;;11.23;1.40;;;16.60;73.80;;;;;;4899838;29;20525;-84
2022/05/26 11:44:03;;;;;;;13.68;3.10;;;16.50;73.80;;;;;;4899058;29;20044;-83
2022/05/26 11:46:43;;;;;;;20.85;1.88;;;16.50;74.50;;;;;;4899914;29;20052;-82
2022/05/26 11:49:42;;;;;;;2.65;0.85;;;16.70;74.70;;;;;;4898470;29;20048;-82
2022/05/26 11:52:23;;;;;;;12.68;1.25;;;16.90;73.20;;;;;;4902054;29;20049;-82
2022/05/26 11:54:57;;;;;;;16.45;2.05;;;17.00;72.80;;;;;;4902182;29;20497;-82
2022/05/26 11:57:43;;;;;;;18.98;2.50;;;17.10;73.10;;;;;;4899795;29;20049;-83
2022/05/26 12:00:40;;;;;;;12.50;2.10;;;17.40;72.60;;;;;;4899476;29;20060;-83
2022/05/26 12:03:27;;;;;;;25.10;2.42;;;17.60;71.30;;;;;;4914081;29;20057;-82
2022/05/26 12:06:09;;;;;;;9.60;1.70;;;17.70;71.10;;;;;;4899449;29;20068;-82
2022/05/26 12:08:52;;;;;;;14.98;3.00;;;17.70;70.40;;;;;;4898809;29;20063;-83
2022/05/26 12:11:57;;;;;;;6.50;1.65;;;17.50;70.90;;;;;;4898411;29;20510;-85
2022/05/26 12:14:46;;;;;;;14.25;2.00;;;17.30;71.50;;;;;;4898099;29;20376;-82
2022/05/26 12:17:30;;;;;;;21.77;2.28;;;17.20;71.90;;;;;;4913864;29;20096;-85
2022/05/26 12:20:09;;;;;;;5.72;1.30;;;17.20;72.00;;;;;;4899265;29;20052;-83
2022/05/26 12:23:03;;;;;;;33.67;3.13;;;17.30;72.20;;;;;;4899534;29;20477;-83
2022/05/26 12:25:40;;;;;;;7.43;1.40;;;17.30;72.70;;;;;;4898483;29;20174;-82
2022/05/26 12:28:10;;;;;;;25.92;2.72;;;17.30;72.20;;;;;;4898542;29;20299;-82
2022/05/26 12:30:45;;;;;;;13.20;2.10;;;17.20;72.30;;;;;;4913277;29;20055;-82
2022/05/26 12:33:20;;;;;;;9.70;1.60;;;17.20;72.30;;;;;;4910469;29;20039;-83
2022/05/26 12:36:03;;;;;;;8.63;1.48;;;17.20;72.70;;;;;;4917011;29;20056;-83
2022/05/26 12:38:51;;;;;;;14.38;2.28;;;17.10;72.70;;;;;;4932331;29;20060;-82
2022/05/26 12:42:06;;;;;;;11.20;2.08;;;17.00;73.20;;;;;;4907235;29;20052;-80
2022/05/26 12:44:56;;;;;;;17.80;2.35;;;17.00;73.60;;;;;;4865720;29;20052;-84
2022/05/26 12:47:28;;;;;;;10.95;2.33;;;17.10;73.20;;;;;;4874283;29;20044;-79
2022/05/26 12:50:08;;;;;;;9.65;1.40;;;17.10;73.30;;;;;;4866574;29;20057;-79
2022/05/26 12:52:37;;;;;;;15.95;2.50;;;17.00;73.20;;;;;;4877292;29;20053;-78
2022/05/26 12:55:16;;;;;;;8.38;2.03;;;16.80;73.40;;;;;;4872491;29;20054;-79
2022/05/26 12:58:06;;;;;;;5.72;1.33;;;16.70;73.80;;;;;;4867392;29;20049;-80
2022/05/26 13:00:37;;;;;;;15.07;1.80;;;16.60;74.30;;;;;;4875968;29;20466;-79
2022/05/26 13:03:12;;;;;;;13.90;1.95;;;16.50;74.40;;;;;;4873016;29;20075;-78
2022/05/26 13:05:47;;;;;;;17.45;2.08;;;16.50;74.80;;;;;;4860460;29;20271;-77
2022/05/26 13:08:18;;;;;;;8.93;1.85;;;16.60;74.90;;;;;;4858068;29;20527;-80
2022/05/26 13:10:48;;;;;;;10.75;1.40;;;16.50;75.00;;;;;;4859816;29;20298;-81
2022/05/26 13:13:36;;;;;;;7.25;1.77;;;16.50;75.00;;;;;;4847543;29;20139;-81
2022/05/26 13:16:42;;;;;;;14.40;2.05;;;16.50;75.10;;;;;;4901258;29;20056;-83
2022/05/26 13:19:15;;;;;;;5.95;1.40;;;16.50;74.90;;;;;;4903521;29;20056;-82
2022/05/26 13:21:45;;;;;;;;;;;16.50;74.90;;;;;;4894987;29;20045;-83
2022/05/26 13:24:23;;;;;;;13.35;1.65;;;16.60;74.70;;;;;;4894678;29;19931;-82
2022/05/26 13:26:58;;;;;;;21.02;2.53;;;16.50;74.70;;;;;;4899320;29;20455;-81
2022/05/26 13:29:28;;;;;;;8.90;1.60;;;16.50;75.10;;;;;;4892490;29;20056;-81
2022/05/26 13:34:49;;;;;;;5.85;1.40;;;16.50;75.70;;;;;;4876493;29;20523;-81
2022/05/26 13:37:26;;;;;;;14.13;2.05;;;16.50;75.90;;;;;;4876594;29;20044;-82
2022/05/26 13:40:05;;;;;;;14.30;2.72;;;16.50;75.40;;;;;;4876799;29;20495;-81
2022/05/26 13:42:36;;;;;;;10.45;1.90;;;16.50;75.90;;;;;;4877002;29;20547;-81
2022/05/26 13:45:07;;;;;;;9.07;1.65;;;16.50;75.70;;;;;;4861157;29;20149;-85
2022/05/26 13:47:39;;;;;;;9.35;1.83;;;16.40;75.60;;;;;;4876674;29;20077;-83
2022/05/26 13:50:09;;;;;;;15.25;2.90;;;16.40;75.60;;;;;;4881399;29;20052;-81
2022/05/26 13:52:39;;;;;;;9.60;2.13;;;16.40;75.30;;;;;;4896066;29;20064;-81
2022/05/26 13:55:24;;;;;;;9.98;2.03;;;16.40;75.00;;;;;;4897812;29;20048;-81
2022/05/26 13:57:55;;;;;;;13.30;2.15;;;16.50;75.30;;;;;;4897333;29;20060;-82